Portada
METAR-TAF:

METAR-TAF

Aeroports :

Aeroport Internacional Diori Hamani

Niamey, Níger

latitud: 13-29N, longitud: 002-10E, altitud: 223 m

Observació

L'informe es va fer fa 1 hora i 1 minuts, a les 15:00 UTC
Vent 7 kt del Sud-Est, variant entre Est/Nord-Est i Sud
Temperatura 40°C
Humitat 19%
Pressió 1007 hPa
Visibilitat 10 km o més
Escasses núvols a una alçada de 2000 ft

METAR: DRRN 221500Z 13007KT 070V170 9999 FEW020 40/12 Q1007 NOSIG

Hora: 17:01 (16:01 UTC)

Pronòstic

L'informe es va fer fa 5 hores i 1 minuts, a les 11:00 UTC
Pronòstic vàlid del 22 a les 12 UTC al 23 a les 18 UTC
Vent 6 kt del Sud-Oest
Visibilitat 10 km o més
sense núvols per sota de 1500 mi sense presència de cumulonimbus.
Probabilitat 30% :
Temporalment
l' 22 a les 15 UTC al 22 a les 20 UTC
Cel ennuvolat a una alçada de 1400 ft
Escasses núvols a una alçada de 2000 ft, Cumulonimbus.
tempesta

TAF: DRRN 221100Z 2212/2318 22006KT CAVOK PROB30 TEMPO 2215/2220 TS BKN014 FEW020CB

Observacions i pronòstics meteorològics de més de 4000 aeroports (METAR i TAF).

Les estacions disponibles són els punts grocs i vermells al mapa.

Posi el ratolí al punt desitjat per veure el nom de l'estació.

Feu clic per veure les observacions i els pronòstics meteorològics.

Per canviar el mapa: feu clic els botons verds amb una creu de color negre per apropar; al botó verd amb un guió per allunyar la imatge; o en les fletxes verdes per a mapes adjacents.


METAR-TAF: